sensor_id;sensor_type;location;lat;lon;timestamp;pressure;altitude;pressure_sealevel;temperature;humidity
25130;BME280;13308;50.860;13.664;2023-05-16T04:47:18;96431.78;;;11.53;100.00
25130;BME280;13308;50.860;13.664;2023-05-16T04:49:43;96434.06;;;11.58;100.00
25130;BME280;13308;50.860;13.664;2023-05-16T04:52:09;96441.13;;;11.59;100.00
25130;BME280;13308;50.860;13.664;2023-05-16T04:54:37;96438.19;;;11.50;100.00
25130;BME280;13308;50.860;13.664;2023-05-16T04:57:02;96442.53;;;11.67;100.00
25130;BME280;13308;50.860;13.664;2023-05-16T04:59:27;96453.41;;;11.58;100.00
25130;BME280;13308;50.860;13.664;2023-05-16T05:01:53;96441.38;;;11.49;100.00
25130;BME280;13308;50.860;13.664;2023-05-16T05:04:18;96450.38;;;11.53;100.00
25130;BME280;13308;50.860;13.664;2023-05-16T05:06:43;96452.53;;;11.45;100.00
25130;BME280;13308;50.860;13.664;2023-05-16T05:09:09;96458.38;;;11.47;100.00
25130;BME280;13308;50.860;13.664;2023-05-16T05:11:35;96466.25;;;11.33;100.00
25130;BME280;13308;50.860;13.664;2023-05-16T05:14:00;96466.09;;;11.40;100.00
25130;BME280;13308;50.860;13.664;2023-05-16T05:16:26;96476.69;;;11.25;100.00
25130;BME280;13308;50.860;13.664;2023-05-16T05:18:51;96466.31;;;11.29;100.00
25130;BME280;13308;50.860;13.664;2023-05-16T05:21:16;96471.50;;;11.27;100.00
25130;BME280;13308;50.860;13.664;2023-05-16T05:23:43;96468.66;;;11.31;100.00
25130;BME280;13308;50.860;13.664;2023-05-16T05:26:08;96476.44;;;11.36;100.00
25130;BME280;13308;50.860;13.664;2023-05-16T05:28:33;96465.31;;;11.39;100.00
25130;BME280;13308;50.860;13.664;2023-05-16T05:30:59;96465.13;;;11.46;100.00
25130;BME280;13308;50.860;13.664;2023-05-16T05:33:27;96459.88;;;11.52;100.00
25130;BME280;13308;50.860;13.664;2023-05-16T05:35:53;96458.22;;;11.54;100.00
25130;BME280;13308;50.860;13.664;2023-05-16T05:38:19;96466.06;;;11.72;100.00
25130;BME280;13308;50.860;13.664;2023-05-16T05:40:44;96477.91;;;11.72;100.00
25130;BME280;13308;50.860;13.664;2023-05-16T05:43:10;96479.09;;;11.55;100.00
25130;BME280;13308;50.860;13.664;2023-05-16T05:45:35;96477.56;;;11.70;100.00
25130;BME280;13308;50.860;13.664;2023-05-16T05:48:01;96481.63;;;11.82;100.00
25130;BME280;13308;50.860;13.664;2023-05-16T05:50:27;96481.19;;;11.67;100.00
25130;BME280;13308;50.860;13.664;2023-05-16T05:52:53;96482.06;;;11.64;100.00
25130;BME280;13308;50.860;13.664;2023-05-16T05:55:18;96488.78;;;11.63;100.00
25130;BME280;13308;50.860;13.664;2023-05-16T05:57:44;96483.69;;;11.62;100.00
25130;BME280;13308;50.860;13.664;2023-05-16T06:00:10;96489.31;;;11.58;100.00
25130;BME280;13308;50.860;13.664;2023-05-16T06:02:35;96482.19;;;11.57;100.00
25130;BME280;13308;50.860;13.664;2023-05-16T06:05:01;96488.59;;;11.54;100.00
25130;BME280;13308;50.860;13.664;2023-05-16T06:07:26;96491.88;;;11.65;100.00
25130;BME280;13308;50.860;13.664;2023-05-16T06:09:51;96495.88;;;11.64;100.00
25130;BME280;13308;50.860;13.664;2023-05-16T06:12:17;96494.66;;;11.65;100.00
25130;BME280;13308;50.860;13.664;2023-05-16T06:14:42;96505.78;;;11.62;100.00
25130;BME280;13308;50.860;13.664;2023-05-16T06:17:07;96508.03;;;11.67;100.00
25130;BME280;13308;50.860;13.664;2023-05-16T06:19:33;96498.53;;;11.36;100.00
25130;BME280;13308;50.860;13.664;2023-05-16T06:21:58;96505.69;;;11.33;100.00
25130;BME280;13308;50.860;13.664;2023-05-16T06:24:23;96512.84;;;11.31;100.00
25130;BME280;13308;50.860;13.664;2023-05-16T06:26:48;96513.63;;;11.31;100.00
25130;BME280;13308;50.860;13.664;2023-05-16T06:29:15;96512.66;;;11.38;100.00
25130;BME280;13308;50.860;13.664;2023-05-16T06:31:41;96522.59;;;11.51;100.00
25130;BME280;13308;50.860;13.664;2023-05-16T06:34:06;96524.06;;;11.56;100.00
25130;BME280;13308;50.860;13.664;2023-05-16T06:36:31;96533.66;;;11.51;100.00
25130;BME280;13308;50.860;13.664;2023-05-16T06:38:57;96524.50;;;11.54;100.00
25130;BME280;13308;50.860;13.664;2023-05-16T06:41:22;96526.81;;;11.56;100.00
25130;BME280;13308;50.860;13.664;2023-05-16T06:43:48;96528.28;;;11.44;100.00
25130;BME280;13308;50.860;13.664;2023-05-16T06:46:13;96530.09;;;11.51;100.00
25130;BME280;13308;50.860;13.664;2023-05-16T06:48:38;96532.59;;;11.45;100.00
25130;BME280;13308;50.860;13.664;2023-05-16T06:51:04;96534.50;;;11.48;100.00
25130;BME280;13308;50.860;13.664;2023-05-16T06:53:29;96537.25;;;11.32;100.00
25130;BME280;13308;50.860;13.664;2023-05-16T06:55:55;96542.88;;;10.93;100.00
25130;BME280;13308;50.860;13.664;2023-05-16T06:58:20;96537.66;;;10.79;100.00
25130;BME280;13308;50.860;13.664;2023-05-16T07:00:48;96551.38;;;10.63;100.00
25130;BME280;13308;50.860;13.664;2023-05-16T07:03:13;96551.38;;;10.63;100.00
25130;BME280;13308;50.860;13.664;2023-05-16T07:05:38;96558.88;;;10.43;100.00
25130;BME280;13308;50.860;13.664;2023-05-16T07:08:04;96556.03;;;10.27;100.00
25130;BME280;13308;50.860;13.664;2023-05-16T07:10:29;96553.16;;;10.34;100.00
25130;BME280;13308;50.860;13.664;2023-05-16T07:12:55;96554.34;;;10.33;100.00
25130;BME280;13308;50.860;13.664;2023-05-16T07:15:20;96552.31;;;10.37;100.00
25130;BME280;13308;50.860;13.664;2023-05-16T07:17:46;96546.25;;;10.46;100.00
25130;BME280;13308;50.860;13.664;2023-05-16T07:20:11;96544.63;;;10.48;100.00
25130;BME280;13308;50.860;13.664;2023-05-16T07:22:39;96542.50;;;10.36;100.00
25130;BME280;13308;50.860;13.664;2023-05-16T07:25:05;96553.22;;;10.31;100.00
25130;BME280;13308;50.860;13.664;2023-05-16T07:27:30;96552.78;;;10.32;100.00
25130;BME280;13308;50.860;13.664;2023-05-16T07:29:56;96558.72;;;10.31;100.00
25130;BME280;13308;50.860;13.664;2023-05-16T07:32:22;96563.00;;;10.35;100.00
25130;BME280;13308;50.860;13.664;2023-05-16T07:34:47;96565.97;;;10.44;100.00
25130;BME280;13308;50.860;13.664;2023-05-16T07:37:12;96557.84;;;10.57;100.00
25130;BME280;13308;50.860;13.664;2023-05-16T07:39:39;96557.47;;;10.74;100.00
25130;BME280;13308;50.860;13.664;2023-05-16T07:42:06;96556.19;;;10.79;100.00
25130;BME280;13308;50.860;13.664;2023-05-16T07:44:31;96554.94;;;10.83;100.00
25130;BME280;13308;50.860;13.664;2023-05-16T07:46:56;96564.91;;;10.77;100.00
25130;BME280;13308;50.860;13.664;2023-05-16T07:49:22;96565.09;;;10.86;100.00
25130;BME280;13308;50.860;13.664;2023-05-16T07:51:47;96578.53;;;10.84;100.00
25130;BME280;13308;50.860;13.664;2023-05-16T07:54:12;96571.91;;;10.62;100.00
25130;BME280;13308;50.860;13.664;2023-05-16T07:56:38;96583.50;;;10.73;100.00
25130;BME280;13308;50.860;13.664;2023-05-16T07:59:03;96585.97;;;10.68;100.00
25130;BME280;13308;50.860;13.664;2023-05-16T08:01:30;96586.03;;;10.64;100.00
25130;BME280;13308;50.860;13.664;2023-05-16T08:03:55;96584.47;;;10.63;100.00
25130;BME280;13308;50.860;13.664;2023-05-16T08:06:20;96581.38;;;10.61;100.00
25130;BME280;13308;50.860;13.664;2023-05-16T08:08:46;96583.19;;;10.68;100.00
25130;BME280;13308;50.860;13.664;2023-05-16T08:11:11;96595.50;;;10.63;100.00
25130;BME280;13308;50.860;13.664;2023-05-16T08:13:36;96595.75;;;10.72;100.00
25130;BME280;13308;50.860;13.664;2023-05-16T08:16:02;96605.00;;;10.62;100.00
25130;BME280;13308;50.860;13.664;2023-05-16T08:18:27;96600.97;;;10.47;100.00
25130;BME280;13308;50.860;13.664;2023-05-16T08:20:52;96595.16;;;10.42;100.00
25130;BME280;13308;50.860;13.664;2023-05-16T08:23:18;96606.53;;;10.44;100.00
25130;BME280;13308;50.860;13.664;2023-05-16T08:25:43;96610.78;;;10.48;100.00
25130;BME280;13308;50.860;13.664;2023-05-16T08:28:08;96620.25;;;10.47;100.00
25130;BME280;13308;50.860;13.664;2023-05-16T08:30:34;96620.13;;;10.54;100.00
25130;BME280;13308;50.860;13.664;2023-05-16T08:32:59;96630.44;;;10.50;100.00
25130;BME280;13308;50.860;13.664;2023-05-16T08:35:28;96624.25;;;10.43;100.00
25130;BME280;13308;50.860;13.664;2023-05-16T08:37:54;96635.94;;;10.50;100.00
25130;BME280;13308;50.860;13.664;2023-05-16T08:40:19;96633.69;;;10.45;100.00
25130;BME280;13308;50.860;13.664;2023-05-16T08:42:46;96628.16;;;10.45;100.00
25130;BME280;13308;50.860;13.664;2023-05-16T08:45:12;96640.75;;;10.46;100.00
25130;BME280;13308;50.860;13.664;2023-05-16T08:47:38;96641.72;;;10.36;100.00
25130;BME280;13308;50.860;13.664;2023-05-16T08:50:08;96641.88;;;10.29;100.00
25130;BME280;13308;50.860;13.664;2023-05-16T08:52:36;96640.53;;;10.14;100.00
25130;BME280;13308;50.860;13.664;2023-05-16T08:55:03;96639.34;;;9.89;100.00
25130;BME280;13308;50.860;13.664;2023-05-16T08:57:35;96653.31;;;10.01;100.00
25130;BME280;13308;50.860;13.664;2023-05-16T09:00:01;96647.00;;;9.78;100.00
25130;BME280;13308;50.860;13.664;2023-05-16T09:02:42;96642.56;;;9.84;100.00
25130;BME280;13308;50.860;13.664;2023-05-16T09:05:10;96639.59;;;9.75;100.00
25130;BME280;13308;50.860;13.664;2023-05-16T09:07:36;96644.19;;;9.81;100.00
25130;BME280;13308;50.860;13.664;2023-05-16T09:10:01;96647.09;;;9.97;100.00
25130;BME280;13308;50.860;13.664;2023-05-16T09:12:27;96653.53;;;9.87;100.00
25130;BME280;13308;50.860;13.664;2023-05-16T09:14:52;96647.78;;;9.78;100.00
25130;BME280;13308;50.860;13.664;2023-05-16T09:17:17;96656.00;;;9.82;100.00
25130;BME280;13308;50.860;13.664;2023-05-16T09:19:43;96658.28;;;9.87;100.00
25130;BME280;13308;50.860;13.664;2023-05-16T09:22:12;96666.53;;;9.87;100.00
25130;BME280;13308;50.860;13.664;2023-05-16T09:24:39;96678.66;;;9.93;100.00
25130;BME280;13308;50.860;13.664;2023-05-16T09:27:13;96685.19;;;9.76;100.00
25130;BME280;13308;50.860;13.664;2023-05-16T09:29:42;96693.25;;;9.90;100.00
25130;BME280;13308;50.860;13.664;2023-05-16T09:32:17;96700.91;;;9.79;100.00
25130;BME280;13308;50.860;13.664;2023-05-16T09:34:46;96688.16;;;9.88;100.00
25130;BME280;13308;50.860;13.664;2023-05-16T09:37:13;96677.75;;;9.99;100.00
25130;BME280;13308;50.860;13.664;2023-05-16T09:39:45;96679.06;;;10.18;100.00
25130;BME280;13308;50.860;13.664;2023-05-16T09:42:12;96688.59;;;10.13;100.00
25130;BME280;13308;50.860;13.664;2023-05-16T09:44:38;96693.84;;;10.27;100.00
25130;BME280;13308;50.860;13.664;2023-05-16T09:47:04;96700.09;;;10.31;100.00
25130;BME280;13308;50.860;13.664;2023-05-16T09:49:30;96706.91;;;10.46;100.00
25130;BME280;13308;50.860;13.664;2023-05-16T09:51:55;96705.44;;;10.42;100.00
25130;BME280;13308;50.860;13.664;2023-05-16T09:54:31;96704.41;;;10.32;100.00
25130;BME280;13308;50.860;13.664;2023-05-16T09:56:57;96701.59;;;10.36;100.00
25130;BME280;13308;50.860;13.664;2023-05-16T09:59:22;96705.56;;;10.35;100.00
25130;BME280;13308;50.860;13.664;2023-05-16T10:01:49;96705.56;;;10.35;100.00
25130;BME280;13308;50.860;13.664;2023-05-16T10:04:15;96705.34;;;10.45;100.00
25130;BME280;13308;50.860;13.664;2023-05-16T10:06:41;96705.75;;;10.47;100.00
25130;BME280;13308;50.860;13.664;2023-05-16T10:09:10;96707.91;;;10.36;100.00
25130;BME280;13308;50.860;13.664;2023-05-16T10:11:41;96701.06;;;10.44;100.00
25130;BME280;13308;50.860;13.664;2023-05-16T10:18:02;96707.28;;;10.48;100.00
25130;BME280;13308;50.860;13.664;2023-05-16T10:20:27;96715.31;;;10.62;100.00
25130;BME280;13308;50.860;13.664;2023-05-16T10:22:54;96713.34;;;10.40;100.00
25130;BME280;13308;50.860;13.664;2023-05-16T10:25:39;96716.28;;;10.29;100.00
25130;BME280;13308;50.860;13.664;2023-05-16T10:28:07;96706.09;;;10.26;100.00
25130;BME280;13308;50.860;13.664;2023-05-16T10:30:33;96706.34;;;10.35;100.00
25130;BME280;13308;50.860;13.664;2023-05-16T10:33:01;96705.19;;;10.33;100.00
25130;BME280;13308;50.860;13.664;2023-05-16T10:35:28;96692.84;;;10.41;100.00
25130;BME280;13308;50.860;13.664;2023-05-16T10:37:53;96694.19;;;10.52;100.00
25130;BME280;13308;50.860;13.664;2023-05-16T10:40:20;96697.34;;;10.54;100.00
25130;BME280;13308;50.860;13.664;2023-05-16T10:43:00;96688.59;;;10.59;100.00
25130;BME280;13308;50.860;13.664;2023-05-16T10:45:26;96694.91;;;10.79;100.00
25130;BME280;13308;50.860;13.664;2023-05-16T10:47:56;96693.41;;;10.94;100.00
25130;BME280;13308;50.860;13.664;2023-05-16T10:50:40;96694.56;;;10.97;100.00
25130;BME280;13308;50.860;13.664;2023-05-16T10:53:21;96691.72;;;11.00;100.00
25130;BME280;13308;50.860;13.664;2023-05-16T11:01:29;96706.53;;;10.90;100.00
25130;BME280;13308;50.860;13.664;2023-05-16T11:11:54;96713.47;;;11.37;100.00
25130;BME280;13308;50.860;13.664;2023-05-16T11:14:23;96715.72;;;11.42;100.00
25130;BME280;13308;50.860;13.664;2023-05-16T11:16:50;96712.81;;;11.49;100.00
25130;BME280;13308;50.860;13.664;2023-05-16T11:19:32;96707.22;;;11.53;100.00
25130;BME280;13308;50.860;13.664;2023-05-16T11:22:20;96706.34;;;11.56;100.00
25130;BME280;13308;50.860;13.664;2023-05-16T11:25:07;96704.88;;;11.51;100.00
25130;BME280;13308;50.860;13.664;2023-05-16T11:27:50;96699.84;;;11.46;100.00
25130;BME280;13308;50.860;13.664;2023-05-16T11:30:16;96700.34;;;11.41;100.00
25130;BME280;13308;50.860;13.664;2023-05-16T11:32:44;96695.63;;;11.42;100.00
25130;BME280;13308;50.860;13.664;2023-05-16T11:35:12;96698.59;;;11.31;100.00
25130;BME280;13308;50.860;13.664;2023-05-16T11:37:38;96690.09;;;11.42;100.00
25130;BME280;13308;50.860;13.664;2023-05-16T11:40:05;96687.97;;;11.49;100.00
25130;BME280;13308;50.860;13.664;2023-05-16T11:42:37;96692.13;;;11.77;100.00
25130;BME280;13308;50.860;13.664;2023-05-16T11:45:10;96688.44;;;12.15;100.00
25130;BME280;13308;50.860;13.664;2023-05-16T11:47:39;96698.13;;;12.39;96.70
25130;BME280;13308;50.860;13.664;2023-05-16T11:50:06;96695.19;;;12.46;95.81
25130;BME280;13308;50.860;13.664;2023-05-16T11:52:34;96692.22;;;12.53;95.58
25130;BME280;13308;50.860;13.664;2023-05-16T11:55:00;96693.13;;;12.50;93.69
25130;BME280;13308;50.860;13.664;2023-05-16T11:57:26;96684.25;;;12.55;94.16
25130;BME280;13308;50.860;13.664;2023-05-16T11:59:52;96680.66;;;12.42;94.41
25130;BME280;13308;50.860;13.664;2023-05-16T12:02:17;96688.53;;;12.28;93.18
25130;BME280;13308;50.860;13.664;2023-05-16T12:04:45;96686.72;;;12.21;93.85
25130;BME280;13308;50.860;13.664;2023-05-16T12:07:13;96686.91;;;12.14;95.06
25130;BME280;13308;50.860;13.664;2023-05-16T12:09:39;96673.94;;;12.11;95.46
25130;BME280;13308;50.860;13.664;2023-05-16T12:12:04;96688.09;;;11.97;96.75
25130;BME280;13308;50.860;13.664;2023-05-16T12:14:31;96691.03;;;12.06;98.41
25130;BME280;13308;50.860;13.664;2023-05-16T12:16:56;96686.09;;;12.14;98.35
25130;BME280;13308;50.860;13.664;2023-05-16T12:19:22;96707.97;;;12.24;96.89
25130;BME280;13308;50.860;13.664;2023-05-16T12:21:51;96715.50;;;12.24;95.33
25130;BME280;13308;50.860;13.664;2023-05-16T12:24:16;96709.34;;;12.16;94.18
25130;BME280;13308;50.860;13.664;2023-05-16T12:26:42;96703.47;;;12.30;93.43
25130;BME280;13308;50.860;13.664;2023-05-16T12:29:09;96706.25;;;12.30;92.71
25130;BME280;13308;50.860;13.664;2023-05-16T12:31:37;96708.13;;;12.17;94.77
25130;BME280;13308;50.860;13.664;2023-05-16T12:34:03;96710.75;;;12.08;94.26
25130;BME280;13308;50.860;13.664;2023-05-16T12:36:32;96709.03;;;12.14;95.46
25130;BME280;13308;50.860;13.664;2023-05-16T12:39:02;96712.91;;;12.17;95.86
25130;BME280;13308;50.860;13.664;2023-05-16T12:41:29;96715.31;;;12.15;95.26
25130;BME280;13308;50.860;13.664;2023-05-16T12:44:14;96713.31;;;11.99;95.81
25130;BME280;13308;50.860;13.664;2023-05-16T12:46:51;96720.06;;;12.14;96.79
25130;BME280;13308;50.860;13.664;2023-05-16T12:49:20;96717.81;;;12.09;95.87
25130;BME280;13308;50.860;13.664;2023-05-16T12:51:53;96718.59;;;12.10;97.10
25130;BME280;13308;50.860;13.664;2023-05-16T12:54:19;96733.78;;;12.02;96.14
25130;BME280;13308;50.860;13.664;2023-05-16T12:56:47;96732.47;;;11.90;97.30
25130;BME280;13308;50.860;13.664;2023-05-16T12:59:12;96732.84;;;12.08;97.12
25130;BME280;13308;50.860;13.664;2023-05-16T13:01:38;96730.25;;;12.17;98.27
25130;BME280;13308;50.860;13.664;2023-05-16T13:04:04;96737.53;;;12.27;96.52
25130;BME280;13308;50.860;13.664;2023-05-16T13:06:30;96740.72;;;12.26;96.65
25130;BME280;13308;50.860;13.664;2023-05-16T13:08:56;96747.03;;;12.26;96.61
25130;BME280;13308;50.860;13.664;2023-05-16T13:11:22;96736.06;;;12.23;96.44
25130;BME280;13308;50.860;13.664;2023-05-16T13:13:47;96739.69;;;12.20;96.26
25130;BME280;13308;50.860;13.664;2023-05-16T13:16:12;96739.00;;;12.32;96.47
25130;BME280;13308;50.860;13.664;2023-05-16T13:18:37;96743.94;;;12.40;94.77
25130;BME280;13308;50.860;13.664;2023-05-16T13:21:03;96744.19;;;12.62;94.51
25130;BME280;13308;50.860;13.664;2023-05-16T13:23:29;96743.19;;;12.84;95.28
25130;BME280;13308;50.860;13.664;2023-05-16T13:25:54;96750.31;;;13.01;95.76
25130;BME280;13308;50.860;13.664;2023-05-16T13:28:20;96752.94;;;13.21;92.53
25130;BME280;13308;50.860;13.664;2023-05-16T13:30:45;96749.75;;;13.22;94.33
25130;BME280;13308;50.860;13.664;2023-05-16T13:33:11;96743.31;;;13.25;92.42
25130;BME280;13308;50.860;13.664;2023-05-16T13:35:36;96744.78;;;13.01;92.89
25130;BME280;13308;50.860;13.664;2023-05-16T13:38:02;96747.91;;;13.03;94.44
25130;BME280;13308;50.860;13.664;2023-05-16T13:40:27;96744.56;;;13.08;94.46
25130;BME280;13308;50.860;13.664;2023-05-16T13:42:53;96735.06;;;12.93;93.82
25130;BME280;13308;50.860;13.664;2023-05-16T13:45:19;96743.19;;;12.84;95.71
25130;BME280;13308;50.860;13.664;2023-05-16T13:47:44;96738.38;;;12.72;94.76
25130;BME280;13308;50.860;13.664;2023-05-16T13:50:10;96737.72;;;12.52;95.61
25130;BME280;13308;50.860;13.664;2023-05-16T13:52:36;96739.25;;;12.53;97.70
25130;BME280;13308;50.860;13.664;2023-05-16T13:55:02;96743.16;;;12.56;96.99
25130;BME280;13308;50.860;13.664;2023-05-16T13:57:28;96745.41;;;12.45;96.63
25130;BME280;13308;50.860;13.664;2023-05-16T13:59:54;96741.03;;;11.96;98.35
25130;BME280;13308;50.860;13.664;2023-05-16T14:02:19;96739.09;;;11.93;99.12
25130;BME280;13308;50.860;13.664;2023-05-16T14:04:45;96740.31;;;11.92;98.24
25130;BME280;13308;50.860;13.664;2023-05-16T14:07:10;96734.72;;;11.95;98.27
25130;BME280;13308;50.860;13.664;2023-05-16T14:09:35;96748.66;;;11.72;98.50
25130;BME280;13308;50.860;13.664;2023-05-16T14:12:04;96739.94;;;11.54;99.01
25130;BME280;13308;50.860;13.664;2023-05-16T14:14:31;96742.75;;;11.51;98.38
25130;BME280;13308;50.860;13.664;2023-05-16T14:16:57;96739.72;;;11.45;98.92
25130;BME280;13308;50.860;13.664;2023-05-16T14:19:22;96739.72;;;11.45;99.20
25130;BME280;13308;50.860;13.664;2023-05-16T14:21:47;96742.63;;;11.38;99.79
25130;BME280;13308;50.860;13.664;2023-05-16T14:24:13;96741.91;;;11.34;100.00
25130;BME280;13308;50.860;13.664;2023-05-16T14:26:38;96735.69;;;11.30;100.00
25130;BME280;13308;50.860;13.664;2023-05-16T14:29:03;96740.38;;;11.33;100.00
25130;BME280;13308;50.860;13.664;2023-05-16T14:31:29;96735.63;;;11.34;100.00
25130;BME280;13308;50.860;13.664;2023-05-16T14:33:54;96736.75;;;11.36;100.00
25130;BME280;13308;50.860;13.664;2023-05-16T14:36:20;96747.78;;;11.36;100.00
25130;BME280;13308;50.860;13.664;2023-05-16T14:38:45;96755.72;;;11.34;100.00
25130;BME280;13308;50.860;13.664;2023-05-16T14:41:10;96758.28;;;11.25;100.00
25130;BME280;13308;50.860;13.664;2023-05-16T14:43:36;96765.56;;;11.16;100.00
25130;BME280;13308;50.860;13.664;2023-05-16T14:46:02;96767.00;;;11.24;100.00
25130;BME280;13308;50.860;13.664;2023-05-16T14:48:28;96766.63;;;11.41;100.00
25130;BME280;13308;50.860;13.664;2023-05-16T14:50:53;96763.19;;;11.37;100.00
25130;BME280;13308;50.860;13.664;2023-05-16T14:53:18;96777.06;;;11.34;100.00
25130;BME280;13308;50.860;13.664;2023-05-16T14:55:46;96781.84;;;11.30;100.00
25130;BME280;13308;50.860;13.664;2023-05-16T14:58:11;96780.38;;;11.25;100.00
25130;BME280;13308;50.860;13.664;2023-05-16T15:00:36;96782.28;;;11.28;100.00
25130;BME280;13308;50.860;13.664;2023-05-16T15:03:02;96779.31;;;11.19;100.00
25130;BME280;13308;50.860;13.664;2023-05-16T15:05:27;96781.22;;;11.22;100.00
25130;BME280;13308;50.860;13.664;2023-05-16T15:07:53;96791.91;;;11.20;100.00
25130;BME280;13308;50.860;13.664;2023-05-16T15:10:19;96778.16;;;11.17;100.00
25130;BME280;13308;50.860;13.664;2023-05-16T15:12:44;96785.25;;;11.18;100.00
25130;BME280;13308;50.860;13.664;2023-05-16T15:15:10;96774.84;;;11.25;100.00
25130;BME280;13308;50.860;13.664;2023-05-16T15:17:39;96776.03;;;11.24;100.00
25130;BME280;13308;50.860;13.664;2023-05-16T15:20:08;96772.44;;;11.27;100.00
25130;BME280;13308;50.860;13.664;2023-05-16T15:22:35;96776.41;;;11.26;100.00
25130;BME280;13308;50.860;13.664;2023-05-16T15:25:00;96778.59;;;11.15;100.00
25130;BME280;13308;50.860;13.664;2023-05-16T15:27:26;96774.13;;;11.21;100.00
25130;BME280;13308;50.860;13.664;2023-05-16T15:29:52;96763.88;;;11.22;100.00
25130;BME280;13308;50.860;13.664;2023-05-16T15:32:17;96771.31;;;11.25;100.00
25130;BME280;13308;50.860;13.664;2023-05-16T15:34:42;96781.06;;;11.29;98.79
25130;BME280;13308;50.860;13.664;2023-05-16T15:37:08;96775.41;;;11.36;99.02
25130;BME280;13308;50.860;13.664;2023-05-16T15:39:33;96783.06;;;11.48;98.81
25130;BME280;13308;50.860;13.664;2023-05-16T15:41:59;96782.94;;;11.55;96.35
25130;BME280;13308;50.860;13.664;2023-05-16T15:44:28;96781.19;;;11.65;95.79
25130;BME280;13308;50.860;13.664;2023-05-16T15:46:53;96783.44;;;11.50;95.04
25130;BME280;13308;50.860;13.664;2023-05-16T15:49:18;96788.53;;;11.52;95.20
25130;BME280;13308;50.860;13.664;2023-05-16T15:51:45;96788.00;;;11.60;94.36
25130;BME280;13308;50.860;13.664;2023-05-16T15:54:10;96788.69;;;11.64;93.98
25130;BME280;13308;50.860;13.664;2023-05-16T15:56:36;96785.16;;;11.64;93.86
25130;BME280;13308;50.860;13.664;2023-05-16T15:59:01;96783.34;;;11.54;94.36
25130;BME280;13308;50.860;13.664;2023-05-16T16:01:26;96771.97;;;11.52;95.16
25130;BME280;13308;50.860;13.664;2023-05-16T16:03:52;96770.25;;;11.58;94.86
25130;BME280;13308;50.860;13.664;2023-05-16T16:06:17;96768.22;;;11.62;94.35
25130;BME280;13308;50.860;13.664;2023-05-16T16:08:42;96773.41;;;11.60;93.30
25130;BME280;13308;50.860;13.664;2023-05-16T16:11:07;96772.31;;;11.73;95.04
25130;BME280;13308;50.860;13.664;2023-05-16T16:13:33;96773.72;;;11.81;93.32
25130;BME280;13308;50.860;13.664;2023-05-16T16:15:58;96767.53;;;11.93;92.34
25130;BME280;13308;50.860;13.664;2023-05-16T16:18:23;96764.44;;;12.07;91.96
25130;BME280;13308;50.860;13.664;2023-05-16T16:20:49;96770.25;;;12.13;91.69
25130;BME280;13308;50.860;13.664;2023-05-16T16:23:16;96768.22;;;12.17;89.59
25130;BME280;13308;50.860;13.664;2023-05-16T16:25:42;96774.34;;;12.24;90.12
25130;BME280;13308;50.860;13.664;2023-05-16T16:28:07;96775.50;;;12.07;88.36
25130;BME280;13308;50.860;13.664;2023-05-16T16:30:33;96772.59;;;12.14;91.01
25130;BME280;13308;50.860;13.664;2023-05-16T16:32:58;96772.94;;;12.16;90.67
25130;BME280;13308;50.860;13.664;2023-05-16T16:35:24;96778.31;;;12.23;90.46
25130;BME280;13308;50.860;13.664;2023-05-16T16:37:51;96777.97;;;12.37;91.08
25130;BME280;13308;50.860;13.664;2023-05-16T16:40:16;96776.53;;;12.49;90.05
25130;BME280;13308;50.860;13.664;2023-05-16T16:42:42;96785.78;;;12.58;90.93
25130;BME280;13308;50.860;13.664;2023-05-16T16:45:08;96793.63;;;12.76;89.95
25130;BME280;13308;50.860;13.664;2023-05-16T16:47:33;96799.25;;;12.88;89.86
25130;BME280;13308;50.860;13.664;2023-05-16T16:49:58;96793.41;;;12.86;87.53
25130;BME280;13308;50.860;13.664;2023-05-16T16:52:25;96798.41;;;12.91;85.64
25130;BME280;13308;50.860;13.664;2023-05-16T16:54:50;96800.56;;;12.84;85.08
25130;BME280;13308;50.860;13.664;2023-05-16T16:57:16;96806.34;;;12.73;84.70
25130;BME280;13308;50.860;13.664;2023-05-16T16:59:41;96805.31;;;12.67;84.97
25130;BME280;13308;50.860;13.664;2023-05-16T17:02:06;96807.91;;;12.58;86.38
25130;BME280;13308;50.860;13.664;2023-05-16T17:04:32;96811.97;;;12.54;86.54
25130;BME280;13308;50.860;13.664;2023-05-16T17:06:59;96808.41;;;12.53;86.23
25130;BME280;13308;50.860;13.664;2023-05-16T17:09:25;96809.59;;;12.36;86.09
25130;BME280;13308;50.860;13.664;2023-05-16T17:11:51;96812.53;;;12.29;85.12
25130;BME280;13308;50.860;13.664;2023-05-16T17:14:16;96820.13;;;12.25;84.56
25130;BME280;13308;50.860;13.664;2023-05-16T17:16:42;96805.88;;;12.27;87.01
25130;BME280;13308;50.860;13.664;2023-05-16T17:19:08;96818.56;;;12.24;88.02
25130;BME280;13308;50.860;13.664;2023-05-16T17:21:33;96811.50;;;12.23;86.48
25130;BME280;13308;50.860;13.664;2023-05-16T17:24:02;96810.72;;;12.23;87.68
25130;BME280;13308;50.860;13.664;2023-05-16T17:26:27;96799.06;;;12.31;87.51
25130;BME280;13308;50.860;13.664;2023-05-16T17:28:53;96801.41;;;12.33;88.32
25130;BME280;13308;50.860;13.664;2023-05-16T17:31:20;96793.97;;;12.30;89.07
25130;BME280;13308;50.860;13.664;2023-05-16T17:33:45;96801.06;;;12.31;89.25
25130;BME280;13308;50.860;13.664;2023-05-16T17:36:11;96803.91;;;12.27;87.83
25130;BME280;13308;50.860;13.664;2023-05-16T17:38:36;96803.91;;;12.27;87.26
25130;BME280;13308;50.860;13.664;2023-05-16T17:41:02;96816.19;;;12.26;86.57
25130;BME280;13308;50.860;13.664;2023-05-16T17:43:28;96813.53;;;12.19;87.08
25130;BME280;13308;50.860;13.664;2023-05-16T17:45:54;96801.81;;;12.15;88.27